sensor_id;sensor_type;location;lat;lon;timestamp;P1;durP1;ratioP1;P2;durP2;ratioP2
11384;SDS011;5747;56.748;13.882;2022-07-29T00:00:21;3.87;;;2.20;;
11384;SDS011;5747;56.748;13.882;2022-07-29T00:02:50;5.13;;;2.20;;
11384;SDS011;5747;56.748;13.882;2022-07-29T00:05:18;3.90;;;2.37;;
11384;SDS011;5747;56.748;13.882;2022-07-29T00:07:46;6.23;;;2.40;;
11384;SDS011;5747;56.748;13.882;2022-07-29T00:10:15;5.70;;;2.37;;
11384;SDS011;5747;56.748;13.882;2022-07-29T00:12:44;3.57;;;2.23;;
11384;SDS011;5747;56.748;13.882;2022-07-29T00:15:12;3.73;;;2.50;;
11384;SDS011;5747;56.748;13.882;2022-07-29T00:17:40;3.97;;;2.30;;
11384;SDS011;5747;56.748;13.882;2022-07-29T00:20:09;1.97;;;1.77;;
11384;SDS011;5747;56.748;13.882;2022-07-29T00:22:37;4.40;;;2.07;;
11384;SDS011;5747;56.748;13.882;2022-07-29T00:25:06;3.70;;;1.93;;
11384;SDS011;5747;56.748;13.882;2022-07-29T00:27:36;2.67;;;2.10;;
11384;SDS011;5747;56.748;13.882;2022-07-29T00:30:05;2.43;;;2.23;;
11384;SDS011;5747;56.748;13.882;2022-07-29T00:32:33;5.63;;;1.80;;
11384;SDS011;5747;56.748;13.882;2022-07-29T00:35:02;5.33;;;2.17;;
11384;SDS011;5747;56.748;13.882;2022-07-29T00:37:47;4.47;;;2.30;;
11384;SDS011;5747;56.748;13.882;2022-07-29T00:40:15;3.27;;;2.40;;
11384;SDS011;5747;56.748;13.882;2022-07-29T00:42:50;4.40;;;2.20;;
11384;SDS011;5747;56.748;13.882;2022-07-29T00:45:19;6.33;;;2.37;;
11384;SDS011;5747;56.748;13.882;2022-07-29T00:47:48;3.83;;;2.53;;
11384;SDS011;5747;56.748;13.882;2022-07-29T00:50:16;4.07;;;1.90;;
11384;SDS011;5747;56.748;13.882;2022-07-29T00:52:46;3.93;;;2.33;;
11384;SDS011;5747;56.748;13.882;2022-07-29T00:55:14;6.40;;;2.20;;
11384;SDS011;5747;56.748;13.882;2022-07-29T00:57:44;31.10;;;3.50;;
11384;SDS011;5747;56.748;13.882;2022-07-29T01:00:15;3.43;;;2.17;;
11384;SDS011;5747;56.748;13.882;2022-07-29T01:02:44;3.50;;;2.00;;
11384;SDS011;5747;56.748;13.882;2022-07-29T01:05:14;5.17;;;1.87;;
11384;SDS011;5747;56.748;13.882;2022-07-29T01:07:45;2.70;;;2.00;;
11384;SDS011;5747;56.748;13.882;2022-07-29T01:10:14;4.33;;;2.07;;
11384;SDS011;5747;56.748;13.882;2022-07-29T01:12:43;4.20;;;2.70;;
11384;SDS011;5747;56.748;13.882;2022-07-29T01:15:15;2.83;;;2.20;;
11384;SDS011;5747;56.748;13.882;2022-07-29T01:17:44;2.50;;;2.30;;
11384;SDS011;5747;56.748;13.882;2022-07-29T01:20:20;4.03;;;2.30;;
11384;SDS011;5747;56.748;13.882;2022-07-29T01:26:04;3.27;;;2.20;;
11384;SDS011;5747;56.748;13.882;2022-07-29T01:31:45;5.93;;;1.90;;
11384;SDS011;5747;56.748;13.882;2022-07-29T01:34:27;4.47;;;2.00;;
11384;SDS011;5747;56.748;13.882;2022-07-29T01:37:02;3.77;;;2.00;;
11384;SDS011;5747;56.748;13.882;2022-07-29T01:39:36;2.77;;;1.90;;
11384;SDS011;5747;56.748;13.882;2022-07-29T01:42:07;3.97;;;2.53;;
11384;SDS011;5747;56.748;13.882;2022-07-29T01:44:45;5.67;;;2.87;;
11384;SDS011;5747;56.748;13.882;2022-07-29T01:47:21;5.67;;;2.47;;
11384;SDS011;5747;56.748;13.882;2022-07-29T01:49:54;4.53;;;2.37;;
11384;SDS011;5747;56.748;13.882;2022-07-29T01:52:26;7.97;;;2.30;;
11384;SDS011;5747;56.748;13.882;2022-07-29T01:54:57;8.57;;;2.83;;
11384;SDS011;5747;56.748;13.882;2022-07-29T01:57:29;9.07;;;2.40;;
11384;SDS011;5747;56.748;13.882;2022-07-29T02:00:03;4.67;;;2.70;;
11384;SDS011;5747;56.748;13.882;2022-07-29T02:02:41;3.67;;;2.30;;
11384;SDS011;5747;56.748;13.882;2022-07-29T02:05:12;3.70;;;2.50;;
11384;SDS011;5747;56.748;13.882;2022-07-29T02:07:42;2.13;;;1.90;;
11384;SDS011;5747;56.748;13.882;2022-07-29T02:10:12;4.33;;;2.70;;
11384;SDS011;5747;56.748;13.882;2022-07-29T02:12:43;5.77;;;2.70;;
11384;SDS011;5747;56.748;13.882;2022-07-29T02:15:17;4.40;;;2.70;;
11384;SDS011;5747;56.748;13.882;2022-07-29T02:17:48;3.57;;;2.60;;
11384;SDS011;5747;56.748;13.882;2022-07-29T02:20:19;4.23;;;2.83;;
11384;SDS011;5747;56.748;13.882;2022-07-29T02:22:49;3.53;;;2.20;;
11384;SDS011;5747;56.748;13.882;2022-07-29T02:25:19;4.73;;;2.63;;
11384;SDS011;5747;56.748;13.882;2022-07-29T02:27:49;6.77;;;2.93;;
11384;SDS011;5747;56.748;13.882;2022-07-29T02:30:20;5.00;;;2.37;;
11384;SDS011;5747;56.748;13.882;2022-07-29T02:32:50;4.40;;;2.80;;
11384;SDS011;5747;56.748;13.882;2022-07-29T02:35:21;13.63;;;3.37;;
11384;SDS011;5747;56.748;13.882;2022-07-29T02:37:50;13.53;;;2.97;;
11384;SDS011;5747;56.748;13.882;2022-07-29T02:40:34;7.27;;;3.27;;
11384;SDS011;5747;56.748;13.882;2022-07-29T02:43:06;20.60;;;3.70;;
11384;SDS011;5747;56.748;13.882;2022-07-29T02:45:37;30.43;;;3.43;;
11384;SDS011;5747;56.748;13.882;2022-07-29T02:48:08;8.87;;;3.23;;
11384;SDS011;5747;56.748;13.882;2022-07-29T02:50:41;6.90;;;3.00;;
11384;SDS011;5747;56.748;13.882;2022-07-29T02:53:17;7.00;;;2.90;;
11384;SDS011;5747;56.748;13.882;2022-07-29T02:55:48;8.67;;;3.50;;
11384;SDS011;5747;56.748;13.882;2022-07-29T02:58:24;13.50;;;3.53;;
11384;SDS011;5747;56.748;13.882;2022-07-29T03:00:56;10.13;;;3.40;;
11384;SDS011;5747;56.748;13.882;2022-07-29T03:03:28;4.03;;;3.00;;
11384;SDS011;5747;56.748;13.882;2022-07-29T03:05:59;8.73;;;3.40;;
11384;SDS011;5747;56.748;13.882;2022-07-29T03:08:30;7.80;;;3.10;;
11384;SDS011;5747;56.748;13.882;2022-07-29T03:10:59;10.63;;;3.40;;
11384;SDS011;5747;56.748;13.882;2022-07-29T03:13:29;16.63;;;3.73;;
11384;SDS011;5747;56.748;13.882;2022-07-29T03:15:59;7.90;;;3.43;;
11384;SDS011;5747;56.748;13.882;2022-07-29T03:18:29;9.90;;;3.93;;
11384;SDS011;5747;56.748;13.882;2022-07-29T03:20:58;14.03;;;3.47;;
11384;SDS011;5747;56.748;13.882;2022-07-29T03:23:26;7.40;;;4.23;;
11384;SDS011;5747;56.748;13.882;2022-07-29T03:26:02;12.93;;;3.77;;
11384;SDS011;5747;56.748;13.882;2022-07-29T03:28:30;8.43;;;3.87;;
11384;SDS011;5747;56.748;13.882;2022-07-29T03:31:01;9.43;;;3.90;;
11384;SDS011;5747;56.748;13.882;2022-07-29T03:33:31;6.90;;;3.30;;
11384;SDS011;5747;56.748;13.882;2022-07-29T03:35:59;11.30;;;3.73;;
11384;SDS011;5747;56.748;13.882;2022-07-29T03:38:29;14.93;;;4.07;;
11384;SDS011;5747;56.748;13.882;2022-07-29T03:41:03;14.00;;;4.30;;
11384;SDS011;5747;56.748;13.882;2022-07-29T03:43:36;24.10;;;4.27;;
11384;SDS011;5747;56.748;13.882;2022-07-29T03:46:16;30.83;;;4.73;;
11384;SDS011;5747;56.748;13.882;2022-07-29T03:48:48;16.83;;;3.77;;
11384;SDS011;5747;56.748;13.882;2022-07-29T03:51:20;29.00;;;4.20;;
11384;SDS011;5747;56.748;13.882;2022-07-29T03:53:59;18.17;;;3.83;;
11384;SDS011;5747;56.748;13.882;2022-07-29T03:56:37;22.73;;;3.40;;
11384;SDS011;5747;56.748;13.882;2022-07-29T03:59:07;18.13;;;4.20;;
11384;SDS011;5747;56.748;13.882;2022-07-29T04:01:39;58.30;;;5.37;;
11384;SDS011;5747;56.748;13.882;2022-07-29T04:04:08;38.00;;;4.40;;
11384;SDS011;5747;56.748;13.882;2022-07-29T04:06:39;31.83;;;4.53;;
11384;SDS011;5747;56.748;13.882;2022-07-29T04:09:09;21.17;;;4.53;;
11384;SDS011;5747;56.748;13.882;2022-07-29T04:11:38;28.37;;;4.87;;
11384;SDS011;5747;56.748;13.882;2022-07-29T04:14:27;39.17;;;4.30;;
11384;SDS011;5747;56.748;13.882;2022-07-29T04:16:57;46.93;;;4.03;;
11384;SDS011;5747;56.748;13.882;2022-07-29T04:19:25;29.90;;;5.07;;
11384;SDS011;5747;56.748;13.882;2022-07-29T04:21:53;81.60;;;5.43;;
11384;SDS011;5747;56.748;13.882;2022-07-29T04:24:21;84.27;;;5.50;;
11384;SDS011;5747;56.748;13.882;2022-07-29T04:26:49;76.67;;;4.77;;
11384;SDS011;5747;56.748;13.882;2022-07-29T04:29:17;64.47;;;5.17;;
11384;SDS011;5747;56.748;13.882;2022-07-29T04:31:46;31.80;;;4.30;;
11384;SDS011;5747;56.748;13.882;2022-07-29T04:34:15;40.27;;;3.53;;
11384;SDS011;5747;56.748;13.882;2022-07-29T04:36:45;50.27;;;3.73;;
11384;SDS011;5747;56.748;13.882;2022-07-29T04:39:13;29.43;;;3.00;;
11384;SDS011;5747;56.748;13.882;2022-07-29T04:41:47;22.90;;;2.03;;
11384;SDS011;5747;56.748;13.882;2022-07-29T04:44:17;21.80;;;3.37;;
11384;SDS011;5747;56.748;13.882;2022-07-29T04:46:46;20.37;;;2.50;;
11384;SDS011;5747;56.748;13.882;2022-07-29T04:49:15;19.37;;;2.73;;
11384;SDS011;5747;56.748;13.882;2022-07-29T04:51:43;33.50;;;2.57;;
11384;SDS011;5747;56.748;13.882;2022-07-29T04:54:11;49.83;;;3.23;;
11384;SDS011;5747;56.748;13.882;2022-07-29T04:56:40;41.77;;;3.23;;
11384;SDS011;5747;56.748;13.882;2022-07-29T04:59:08;23.53;;;2.63;;
11384;SDS011;5747;56.748;13.882;2022-07-29T05:01:38;40.73;;;3.03;;
11384;SDS011;5747;56.748;13.882;2022-07-29T05:04:08;36.23;;;2.90;;
11384;SDS011;5747;56.748;13.882;2022-07-29T05:06:37;39.80;;;3.27;;
11384;SDS011;5747;56.748;13.882;2022-07-29T05:09:05;53.10;;;3.00;;
11384;SDS011;5747;56.748;13.882;2022-07-29T05:11:33;53.43;;;3.00;;
11384;SDS011;5747;56.748;13.882;2022-07-29T05:14:01;32.50;;;4.10;;
11384;SDS011;5747;56.748;13.882;2022-07-29T05:16:29;35.40;;;2.87;;
11384;SDS011;5747;56.748;13.882;2022-07-29T05:18:58;34.73;;;2.40;;
11384;SDS011;5747;56.748;13.882;2022-07-29T05:21:26;8.83;;;1.90;;
11384;SDS011;5747;56.748;13.882;2022-07-29T05:23:55;17.93;;;2.37;;
11384;SDS011;5747;56.748;13.882;2022-07-29T05:26:23;4.07;;;1.30;;
11384;SDS011;5747;56.748;13.882;2022-07-29T05:28:51;6.30;;;1.70;;
11384;SDS011;5747;56.748;13.882;2022-07-29T05:31:20;3.83;;;1.50;;
11384;SDS011;5747;56.748;13.882;2022-07-29T05:33:48;1.30;;;1.20;;
11384;SDS011;5747;56.748;13.882;2022-07-29T05:36:16;4.20;;;1.70;;
11384;SDS011;5747;56.748;13.882;2022-07-29T05:38:44;10.60;;;1.87;;
11384;SDS011;5747;56.748;13.882;2022-07-29T05:41:14;5.80;;;1.83;;
11384;SDS011;5747;56.748;13.882;2022-07-29T05:43:42;2.10;;;1.90;;
11384;SDS011;5747;56.748;13.882;2022-07-29T05:46:11;8.07;;;2.20;;
11384;SDS011;5747;56.748;13.882;2022-07-29T05:48:40;17.77;;;2.03;;
11384;SDS011;5747;56.748;13.882;2022-07-29T05:51:08;15.23;;;2.10;;
11384;SDS011;5747;56.748;13.882;2022-07-29T05:53:36;9.50;;;2.27;;
11384;SDS011;5747;56.748;13.882;2022-07-29T05:56:05;4.57;;;2.40;;
11384;SDS011;5747;56.748;13.882;2022-07-29T05:58:35;11.63;;;2.50;;
11384;SDS011;5747;56.748;13.882;2022-07-29T06:01:03;10.57;;;2.80;;
11384;SDS011;5747;56.748;13.882;2022-07-29T06:03:31;6.33;;;3.00;;
11384;SDS011;5747;56.748;13.882;2022-07-29T06:06:00;10.57;;;3.30;;
11384;SDS011;5747;56.748;13.882;2022-07-29T06:08:28;4.43;;;2.90;;
11384;SDS011;5747;56.748;13.882;2022-07-29T06:10:57;7.20;;;3.00;;
11384;SDS011;5747;56.748;13.882;2022-07-29T06:13:25;6.90;;;3.33;;
11384;SDS011;5747;56.748;13.882;2022-07-29T06:15:54;4.40;;;2.90;;
11384;SDS011;5747;56.748;13.882;2022-07-29T06:18:24;4.37;;;3.03;;
11384;SDS011;5747;56.748;13.882;2022-07-29T06:20:53;3.47;;;3.03;;
11384;SDS011;5747;56.748;13.882;2022-07-29T06:23:21;4.27;;;3.07;;
11384;SDS011;5747;56.748;13.882;2022-07-29T06:25:49;5.53;;;2.90;;
11384;SDS011;5747;56.748;13.882;2022-07-29T06:28:17;3.80;;;2.80;;
11384;SDS011;5747;56.748;13.882;2022-07-29T06:30:45;4.63;;;2.57;;
11384;SDS011;5747;56.748;13.882;2022-07-29T06:33:18;3.00;;;2.53;;
11384;SDS011;5747;56.748;13.882;2022-07-29T06:35:46;5.73;;;2.77;;
11384;SDS011;5747;56.748;13.882;2022-07-29T06:38:20;4.10;;;2.27;;
11384;SDS011;5747;56.748;13.882;2022-07-29T06:40:59;4.60;;;2.37;;
11384;SDS011;5747;56.748;13.882;2022-07-29T06:43:29;3.80;;;2.03;;
11384;SDS011;5747;56.748;13.882;2022-07-29T06:46:00;4.83;;;2.10;;
11384;SDS011;5747;56.748;13.882;2022-07-29T06:48:31;2.87;;;1.80;;
11384;SDS011;5747;56.748;13.882;2022-07-29T06:51:00;4.07;;;2.20;;
11384;SDS011;5747;56.748;13.882;2022-07-29T06:53:28;3.50;;;1.73;;
11384;SDS011;5747;56.748;13.882;2022-07-29T06:55:56;4.17;;;1.70;;
11384;SDS011;5747;56.748;13.882;2022-07-29T06:58:25;3.77;;;1.80;;
11384;SDS011;5747;56.748;13.882;2022-07-29T07:00:54;4.27;;;2.07;;
11384;SDS011;5747;56.748;13.882;2022-07-29T07:03:23;2.77;;;1.90;;
11384;SDS011;5747;56.748;13.882;2022-07-29T07:05:53;3.20;;;1.83;;
11384;SDS011;5747;56.748;13.882;2022-07-29T07:08:22;3.73;;;1.80;;
11384;SDS011;5747;56.748;13.882;2022-07-29T07:10:50;4.53;;;2.00;;
11384;SDS011;5747;56.748;13.882;2022-07-29T07:13:18;3.03;;;2.20;;
11384;SDS011;5747;56.748;13.882;2022-07-29T07:15:47;5.37;;;2.00;;
11384;SDS011;5747;56.748;13.882;2022-07-29T07:18:15;3.97;;;2.10;;
11384;SDS011;5747;56.748;13.882;2022-07-29T07:20:44;3.30;;;2.00;;
11384;SDS011;5747;56.748;13.882;2022-07-29T07:23:15;3.80;;;2.07;;
11384;SDS011;5747;56.748;13.882;2022-07-29T07:25:43;2.10;;;1.80;;
11384;SDS011;5747;56.748;13.882;2022-07-29T07:28:11;4.80;;;2.33;;
11384;SDS011;5747;56.748;13.882;2022-07-29T07:30:39;5.90;;;2.17;;
11384;SDS011;5747;56.748;13.882;2022-07-29T07:33:07;6.23;;;2.00;;
11384;SDS011;5747;56.748;13.882;2022-07-29T07:35:36;4.20;;;2.00;;
11384;SDS011;5747;56.748;13.882;2022-07-29T07:38:04;4.27;;;1.97;;
11384;SDS011;5747;56.748;13.882;2022-07-29T07:40:34;4.47;;;2.10;;
11384;SDS011;5747;56.748;13.882;2022-07-29T07:43:03;4.03;;;2.00;;
11384;SDS011;5747;56.748;13.882;2022-07-29T07:45:31;4.97;;;1.97;;
11384;SDS011;5747;56.748;13.882;2022-07-29T07:48:00;3.80;;;1.90;;
11384;SDS011;5747;56.748;13.882;2022-07-29T07:50:28;3.50;;;1.63;;
11384;SDS011;5747;56.748;13.882;2022-07-29T07:52:56;5.37;;;1.77;;
11384;SDS011;5747;56.748;13.882;2022-07-29T07:55:25;3.70;;;1.47;;
11384;SDS011;5747;56.748;13.882;2022-07-29T07:57:55;3.83;;;1.73;;
11384;SDS011;5747;56.748;13.882;2022-07-29T08:00:23;4.87;;;1.60;;
11384;SDS011;5747;56.748;13.882;2022-07-29T08:02:51;3.17;;;1.60;;
11384;SDS011;5747;56.748;13.882;2022-07-29T08:05:19;3.03;;;1.60;;
11384;SDS011;5747;56.748;13.882;2022-07-29T08:07:48;3.10;;;1.77;;
11384;SDS011;5747;56.748;13.882;2022-07-29T08:10:16;3.77;;;1.67;;
11384;SDS011;5747;56.748;13.882;2022-07-29T08:13:08;2.50;;;1.53;;
11384;SDS011;5747;56.748;13.882;2022-07-29T08:15:38;2.77;;;1.50;;
11384;SDS011;5747;56.748;13.882;2022-07-29T08:18:07;4.10;;;1.77;;
11384;SDS011;5747;56.748;13.882;2022-07-29T08:20:35;4.00;;;1.90;;
11384;SDS011;5747;56.748;13.882;2022-07-29T08:23:05;4.10;;;1.80;;
11384;SDS011;5747;56.748;13.882;2022-07-29T08:25:35;3.43;;;1.60;;
11384;SDS011;5747;56.748;13.882;2022-07-29T08:28:05;2.43;;;1.57;;
11384;SDS011;5747;56.748;13.882;2022-07-29T08:30:35;3.50;;;1.70;;
11384;SDS011;5747;56.748;13.882;2022-07-29T08:33:03;6.10;;;1.73;;
11384;SDS011;5747;56.748;13.882;2022-07-29T08:35:31;4.47;;;1.60;;
11384;SDS011;5747;56.748;13.882;2022-07-29T08:38:01;2.97;;;1.60;;
11384;SDS011;5747;56.748;13.882;2022-07-29T08:40:30;4.13;;;1.70;;
11384;SDS011;5747;56.748;13.882;2022-07-29T08:42:59;4.43;;;1.50;;
11384;SDS011;5747;56.748;13.882;2022-07-29T08:45:35;4.83;;;1.80;;
11384;SDS011;5747;56.748;13.882;2022-07-29T08:48:14;4.57;;;1.70;;
11384;SDS011;5747;56.748;13.882;2022-07-29T08:50:43;2.77;;;1.60;;
11384;SDS011;5747;56.748;13.882;2022-07-29T08:53:14;3.40;;;1.60;;
11384;SDS011;5747;56.748;13.882;2022-07-29T08:55:45;3.80;;;1.60;;
11384;SDS011;5747;56.748;13.882;2022-07-29T08:58:15;3.60;;;1.60;;
11384;SDS011;5747;56.748;13.882;2022-07-29T09:00:52;2.77;;;1.60;;
11384;SDS011;5747;56.748;13.882;2022-07-29T09:03:22;3.60;;;1.60;;
11384;SDS011;5747;56.748;13.882;2022-07-29T09:05:52;3.53;;;1.60;;
11384;SDS011;5747;56.748;13.882;2022-07-29T09:08:21;3.30;;;1.70;;
11384;SDS011;5747;56.748;13.882;2022-07-29T09:10:50;3.57;;;1.37;;
11384;SDS011;5747;56.748;13.882;2022-07-29T09:13:18;2.00;;;1.50;;
11384;SDS011;5747;56.748;13.882;2022-07-29T09:15:46;3.20;;;1.60;;
11384;SDS011;5747;56.748;13.882;2022-07-29T09:21:08;1.30;;;1.20;;
11384;SDS011;5747;56.748;13.882;2022-07-29T09:24:01;3.13;;;1.30;;
11384;SDS011;5747;56.748;13.882;2022-07-29T09:26:34;2.60;;;1.50;;
11384;SDS011;5747;56.748;13.882;2022-07-29T09:29:07;3.27;;;1.27;;
11384;SDS011;5747;56.748;13.882;2022-07-29T09:31:38;2.90;;;1.20;;
11384;SDS011;5747;56.748;13.882;2022-07-29T09:34:08;2.83;;;1.30;;
11384;SDS011;5747;56.748;13.882;2022-07-29T09:36:41;2.30;;;1.27;;
11384;SDS011;5747;56.748;13.882;2022-07-29T09:39:11;4.03;;;1.40;;
11384;SDS011;5747;56.748;13.882;2022-07-29T09:41:43;2.37;;;1.27;;
11384;SDS011;5747;56.748;13.882;2022-07-29T09:44:13;3.33;;;1.30;;
11384;SDS011;5747;56.748;13.882;2022-07-29T09:46:52;3.87;;;1.50;;
11384;SDS011;5747;56.748;13.882;2022-07-29T09:49:25;2.80;;;1.30;;
11384;SDS011;5747;56.748;13.882;2022-07-29T09:52:08;3.57;;;1.20;;
11384;SDS011;5747;56.748;13.882;2022-07-29T09:54:37;2.10;;;1.30;;
11384;SDS011;5747;56.748;13.882;2022-07-29T09:57:05;1.30;;;1.10;;
11384;SDS011;5747;56.748;13.882;2022-07-29T09:59:38;2.93;;;1.20;;
11384;SDS011;5747;56.748;13.882;2022-07-29T10:02:16;1.93;;;1.20;;
11384;SDS011;5747;56.748;13.882;2022-07-29T10:04:49;2.17;;;1.17;;
11384;SDS011;5747;56.748;13.882;2022-07-29T10:07:18;1.87;;;1.30;;
11384;SDS011;5747;56.748;13.882;2022-07-29T10:09:49;2.80;;;1.27;;
11384;SDS011;5747;56.748;13.882;2022-07-29T10:12:21;1.57;;;1.10;;
11384;SDS011;5747;56.748;13.882;2022-07-29T10:14:49;1.70;;;1.30;;
11384;SDS011;5747;56.748;13.882;2022-07-29T10:17:18;1.43;;;0.80;;
11384;SDS011;5747;56.748;13.882;2022-07-29T10:19:48;1.10;;;1.00;;
11384;SDS011;5747;56.748;13.882;2022-07-29T10:22:16;1.23;;;1.00;;
11384;SDS011;5747;56.748;13.882;2022-07-29T10:25:06;2.07;;;1.00;;
11384;SDS011;5747;56.748;13.882;2022-07-29T10:27:36;0.90;;;0.90;;
11384;SDS011;5747;56.748;13.882;2022-07-29T10:30:05;1.73;;;1.03;;
11384;SDS011;5747;56.748;13.882;2022-07-29T10:32:49;0.90;;;0.90;;
11384;SDS011;5747;56.748;13.882;2022-07-29T10:35:34;1.60;;;1.23;;
11384;SDS011;5747;56.748;13.882;2022-07-29T10:38:37;1.07;;;1.00;;
11384;SDS011;5747;56.748;13.882;2022-07-29T10:44:16;1.03;;;1.00;;
11384;SDS011;5747;56.748;13.882;2022-07-29T10:46:49;1.13;;;1.03;;
11384;SDS011;5747;56.748;13.882;2022-07-29T10:49:20;1.13;;;0.90;;
11384;SDS011;5747;56.748;13.882;2022-07-29T10:51:55;1.03;;;0.90;;
11384;SDS011;5747;56.748;13.882;2022-07-29T10:54:40;1.67;;;0.80;;
11384;SDS011;5747;56.748;13.882;2022-07-29T10:57:15;1.03;;;0.90;;
11384;SDS011;5747;56.748;13.882;2022-07-29T11:00:25;1.23;;;1.00;;
11384;SDS011;5747;56.748;13.882;2022-07-29T11:02:59;1.30;;;0.80;;
11384;SDS011;5747;56.748;13.882;2022-07-29T11:05:51;1.60;;;1.00;;
11384;SDS011;5747;56.748;13.882;2022-07-29T11:08:24;2.67;;;1.00;;
11384;SDS011;5747;56.748;13.882;2022-07-29T11:13:57;1.17;;;0.87;;
11384;SDS011;5747;56.748;13.882;2022-07-29T11:16:25;1.37;;;0.90;;
11384;SDS011;5747;56.748;13.882;2022-07-29T11:19:26;1.03;;;0.97;;
11384;SDS011;5747;56.748;13.882;2022-07-29T11:21:56;1.33;;;0.93;;
11384;SDS011;5747;56.748;13.882;2022-07-29T11:24:25;1.10;;;0.90;;
11384;SDS011;5747;56.748;13.882;2022-07-29T11:27:15;0.83;;;0.83;;
11384;SDS011;5747;56.748;13.882;2022-07-29T11:29:49;1.07;;;0.90;;
11384;SDS011;5747;56.748;13.882;2022-07-29T11:32:19;1.30;;;0.80;;
11384;SDS011;5747;56.748;13.882;2022-07-29T11:34:50;1.00;;;0.90;;
11384;SDS011;5747;56.748;13.882;2022-07-29T11:37:44;1.23;;;0.90;;
11384;SDS011;5747;56.748;13.882;2022-07-29T11:40:23;1.00;;;0.70;;
11384;SDS011;5747;56.748;13.882;2022-07-29T11:42:52;1.13;;;0.90;;
11384;SDS011;5747;56.748;13.882;2022-07-29T11:45:24;1.53;;;0.90;;
11384;SDS011;5747;56.748;13.882;2022-07-29T11:48:18;1.37;;;0.80;;
11384;SDS011;5747;56.748;13.882;2022-07-29T11:50:57;0.80;;;0.80;;
11384;SDS011;5747;56.748;13.882;2022-07-29T11:53:26;1.97;;;0.90;;
11384;SDS011;5747;56.748;13.882;2022-07-29T11:55:58;1.63;;;0.90;;
11384;SDS011;5747;56.748;13.882;2022-07-29T11:58:30;1.33;;;1.07;;
11384;SDS011;5747;56.748;13.882;2022-07-29T12:00:59;1.27;;;1.00;;
11384;SDS011;5747;56.748;13.882;2022-07-29T12:03:48;2.70;;;1.00;;
11384;SDS011;5747;56.748;13.882;2022-07-29T12:06:32;0.67;;;0.67;;
11384;SDS011;5747;56.748;13.882;2022-07-29T12:09:03;1.77;;;0.93;;
11384;SDS011;5747;56.748;13.882;2022-07-29T12:11:40;0.80;;;0.80;;
11384;SDS011;5747;56.748;13.882;2022-07-29T12:14:27;3.67;;;1.10;;
11384;SDS011;5747;56.748;13.882;2022-07-29T12:16:56;2.13;;;0.90;;
11384;SDS011;5747;56.748;13.882;2022-07-29T12:19:25;1.00;;;0.90;;
11384;SDS011;5747;56.748;13.882;2022-07-29T12:21:53;0.93;;;0.90;;
11384;SDS011;5747;56.748;13.882;2022-07-29T12:24:25;1.07;;;0.97;;
11384;SDS011;5747;56.748;13.882;2022-07-29T12:26:54;0.80;;;0.80;;
11384;SDS011;5747;56.748;13.882;2022-07-29T12:29:23;1.13;;;0.90;;
11384;SDS011;5747;56.748;13.882;2022-07-29T12:32:02;0.80;;;0.80;;
11384;SDS011;5747;56.748;13.882;2022-07-29T12:34:45;0.93;;;0.80;;
11384;SDS011;5747;56.748;13.882;2022-07-29T12:37:13;1.20;;;1.00;;
11384;SDS011;5747;56.748;13.882;2022-07-29T12:39:42;0.73;;;0.73;;
11384;SDS011;5747;56.748;13.882;2022-07-29T12:42:11;1.77;;;0.97;;
11384;SDS011;5747;56.748;13.882;2022-07-29T12:44:44;2.13;;;0.90;;
11384;SDS011;5747;56.748;13.882;2022-07-29T12:47:17;2.10;;;1.00;;
11384;SDS011;5747;56.748;13.882;2022-07-29T12:49:47;1.00;;;0.90;;
11384;SDS011;5747;56.748;13.882;2022-07-29T12:52:25;1.13;;;0.90;;
11384;SDS011;5747;56.748;13.882;2022-07-29T12:54:55;0.90;;;0.90;;
11384;SDS011;5747;56.748;13.882;2022-07-29T12:57:23;0.80;;;0.80;;
11384;SDS011;5747;56.748;13.882;2022-07-29T13:00:03;1.27;;;1.00;;
11384;SDS011;5747;56.748;13.882;2022-07-29T13:02:35;1.57;;;1.00;;
11384;SDS011;5747;56.748;13.882;2022-07-29T13:05:05;1.20;;;1.10;;
11384;SDS011;5747;56.748;13.882;2022-07-29T13:07:35;1.30;;;1.00;;
11384;SDS011;5747;56.748;13.882;2022-07-29T13:10:21;3.07;;;1.20;;
11384;SDS011;5747;56.748;13.882;2022-07-29T13:13:06;1.17;;;1.07;;
11384;SDS011;5747;56.748;13.882;2022-07-29T13:15:36;3.83;;;1.40;;
11384;SDS011;5747;56.748;13.882;2022-07-29T13:20:56;2.27;;;1.10;;
11384;SDS011;5747;56.748;13.882;2022-07-29T13:23:24;0.90;;;0.90;;
11384;SDS011;5747;56.748;13.882;2022-07-29T13:25:52;1.27;;;1.00;;
11384;SDS011;5747;56.748;13.882;2022-07-29T13:28:20;1.07;;;0.97;;
11384;SDS011;5747;56.748;13.882;2022-07-29T13:30:48;1.20;;;1.07;;
11384;SDS011;5747;56.748;13.882;2022-07-29T13:33:17;1.03;;;0.80;;
11384;SDS011;5747;56.748;13.882;2022-07-29T13:35:46;1.10;;;0.90;;
11384;SDS011;5747;56.748;13.882;2022-07-29T13:38:14;0.80;;;0.80;;
11384;SDS011;5747;56.748;13.882;2022-07-29T13:40:43;2.00;;;1.00;;
11384;SDS011;5747;56.748;13.882;2022-07-29T13:43:11;1.20;;;1.10;;
11384;SDS011;5747;56.748;13.882;2022-07-29T13:45:39;1.20;;;1.03;;
11384;SDS011;5747;56.748;13.882;2022-07-29T13:48:07;0.90;;;0.90;;
11384;SDS011;5747;56.748;13.882;2022-07-29T13:50:36;1.87;;;1.20;;
11384;SDS011;5747;56.748;13.882;2022-07-29T13:53:05;3.13;;;1.07;;
11384;SDS011;5747;56.748;13.882;2022-07-29T13:55:33;1.60;;;1.00;;
11384;SDS011;5747;56.748;13.882;2022-07-29T13:58:01;1.20;;;1.00;;
11384;SDS011;5747;56.748;13.882;2022-07-29T14:00:30;1.20;;;1.10;;
11384;SDS011;5747;56.748;13.882;2022-07-29T14:02:58;2.10;;;1.00;;
11384;SDS011;5747;56.748;13.882;2022-07-29T14:05:26;1.30;;;1.10;;
11384;SDS011;5747;56.748;13.882;2022-07-29T14:07:55;2.50;;;1.20;;
11384;SDS011;5747;56.748;13.882;2022-07-29T14:10:24;1.00;;;0.90;;
11384;SDS011;5747;56.748;13.882;2022-07-29T14:12:54;2.33;;;1.03;;
11384;SDS011;5747;56.748;13.882;2022-07-29T14:15:22;1.40;;;1.10;;
11384;SDS011;5747;56.748;13.882;2022-07-29T14:17:50;0.87;;;0.87;;
11384;SDS011;5747;56.748;13.882;2022-07-29T14:20:18;1.63;;;0.90;;
11384;SDS011;5747;56.748;13.882;2022-07-29T14:22:46;0.90;;;0.90;;
11384;SDS011;5747;56.748;13.882;2022-07-29T14:25:15;1.00;;;0.90;;
11384;SDS011;5747;56.748;13.882;2022-07-29T14:27:47;1.10;;;1.00;;
11384;SDS011;5747;56.748;13.882;2022-07-29T14:30:15;0.90;;;0.90;;
11384;SDS011;5747;56.748;13.882;2022-07-29T14:32:44;1.27;;;1.10;;
11384;SDS011;5747;56.748;13.882;2022-07-29T14:35:12;1.13;;;0.93;;
11384;SDS011;5747;56.748;13.882;2022-07-29T14:37:40;1.47;;;0.90;;
11384;SDS011;5747;56.748;13.882;2022-07-29T14:40:10;1.40;;;1.00;;
11384;SDS011;5747;56.748;13.882;2022-07-29T14:42:39;1.27;;;1.00;;
11384;SDS011;5747;56.748;13.882;2022-07-29T14:45:08;1.00;;;0.90;;
11384;SDS011;5747;56.748;13.882;2022-07-29T14:47:37;1.47;;;1.10;;
11384;SDS011;5747;56.748;13.882;2022-07-29T14:50:06;1.43;;;1.00;;
11384;SDS011;5747;56.748;13.882;2022-07-29T14:52:35;0.90;;;0.83;;
11384;SDS011;5747;56.748;13.882;2022-07-29T14:55:04;1.33;;;1.00;;
11384;SDS011;5747;56.748;13.882;2022-07-29T14:57:44;1.73;;;1.00;;
11384;SDS011;5747;56.748;13.882;2022-07-29T15:00:14;1.13;;;0.93;;
11384;SDS011;5747;56.748;13.882;2022-07-29T15:02:43;1.77;;;1.07;;
11384;SDS011;5747;56.748;13.882;2022-07-29T15:05:27;1.07;;;1.00;;
11384;SDS011;5747;56.748;13.882;2022-07-29T15:07:55;2.27;;;1.03;;
11384;SDS011;5747;56.748;13.882;2022-07-29T15:10:23;1.70;;;1.10;;
11384;SDS011;5747;56.748;13.882;2022-07-29T15:12:53;1.50;;;1.20;;
11384;SDS011;5747;56.748;13.882;2022-07-29T15:15:23;1.70;;;1.00;;
11384;SDS011;5747;56.748;13.882;2022-07-29T15:17:51;1.50;;;1.20;;
11384;SDS011;5747;56.748;13.882;2022-07-29T15:20:19;1.10;;;1.00;;
11384;SDS011;5747;56.748;13.882;2022-07-29T15:22:47;0.90;;;0.90;;
11384;SDS011;5747;56.748;13.882;2022-07-29T15:25:15;3.07;;;1.07;;
11384;SDS011;5747;56.748;13.882;2022-07-29T15:27:44;1.63;;;1.03;;